EZY5TW EGKK-ENTC
Flight info
| Callsign | EZY5TW |
|---|---|
| Flight time | N/A |
| Altitude | 37000 |
| Route | FRANE M604 GIVPO DCT LARGA DCT TINAC DCT KARLI DCT ROPNO DCT NELSU DCT STO DCT BDO DCT GEPTU DCT BARVI |
| Aircraft | A320/M-SDE3FGHIRWY/LB1 |
Departure
| Time | 2026-04-15 08:48 |
|---|---|
| Airport | London Gatwick Airport (EGKK) |
Arrival
| Time | N/A |
|---|---|
| Airport | Tromsø Airport (ENTC) |
| Time | Latitude | Longitude | Altitude | Speed | Heading |
|---|---|---|---|---|---|
| 2026-04-15 08:21 | 51.15776 | -0.17938 | 213 ft | 0 kts | 32° |
| 2026-04-15 08:38 | 51.15772 | -0.17942 | 204 ft | 2 kts | 32° |
| 2026-04-15 08:39 | 51.15757 | -0.17957 | 216 ft | 3 kts | 32° |
| 2026-04-15 08:39 | 51.15737 | -0.17977 | 216 ft | 4 kts | 32° |
| 2026-04-15 08:39 | 51.15715 | -0.18000 | 209 ft | 4 kts | 32° |
| 2026-04-15 08:39 | 51.15695 | -0.18026 | 211 ft | 4 kts | 59° |
| 2026-04-15 08:40 | 51.15685 | -0.18065 | 216 ft | 4 kts | 78° |
| 2026-04-15 08:40 | 51.15681 | -0.18093 | 215 ft | 0 kts | 78° |
| 2026-04-15 08:42 | 51.15683 | -0.18075 | 212 ft | 4 kts | 78° |
| 2026-04-15 08:42 | 51.15696 | -0.17980 | 206 ft | 12 kts | 78° |
| 2026-04-15 08:42 | 51.15717 | -0.17829 | 204 ft | 15 kts | 77° |
| 2026-04-15 08:43 | 51.15738 | -0.17673 | 214 ft | 15 kts | 78° |
| 2026-04-15 08:43 | 51.15748 | -0.17522 | 216 ft | 13 kts | 124° |
| 2026-04-15 08:43 | 51.15690 | -0.17488 | 204 ft | 2 kts | 168° |
| 2026-04-15 08:43 | 51.15668 | -0.17481 | 206 ft | 5 kts | 168° |
| 2026-04-15 08:44 | 51.15617 | -0.17464 | 204 ft | 10 kts | 168° |
| 2026-04-15 08:44 | 51.15538 | -0.17435 | 204 ft | 13 kts | 167° |
| 2026-04-15 08:44 | 51.15441 | -0.17401 | 211 ft | 15 kts | 167° |
| 2026-04-15 08:44 | 51.15331 | -0.17363 | 204 ft | 17 kts | 168° |
| 2026-04-15 08:45 | 51.15241 | -0.17266 | 211 ft | 17 kts | 88° |
| 2026-04-15 08:45 | 51.15269 | -0.17065 | 205 ft | 20 kts | 78° |
| 2026-04-15 08:45 | 51.15289 | -0.16853 | 204 ft | 16 kts | 113° |
| 2026-04-15 08:45 | 51.15234 | -0.16809 | 214 ft | 1 kts | 171° |
| 2026-04-15 08:46 | 51.15233 | -0.16808 | 214 ft | 0 kts | 171° |
| 2026-04-15 08:46 | 51.15231 | -0.16808 | 214 ft | 1 kts | 171° |
| 2026-04-15 08:46 | 51.15204 | -0.16799 | 208 ft | 9 kts | 167° |
| 2026-04-15 08:47 | 51.15121 | -0.16829 | 210 ft | 16 kts | 231° |
| 2026-04-15 08:47 | 51.15105 | -0.16919 | 206 ft | 1 kts | 259° |
| 2026-04-15 08:47 | 51.15088 | -0.17054 | 209 ft | 42 kts | 257° |
| 2026-04-15 08:47 | 51.14974 | -0.17880 | 212 ft | 109 kts | 258° |
| 2026-04-15 08:48 | 51.14781 | -0.19348 | 218 ft | 158 kts | 254° |
| 2026-04-15 08:48 | 51.14574 | -0.21075 | 842 ft | 159 kts | 253° |
| 2026-04-15 08:48 | 51.14346 | -0.22793 | 1626 ft | 158 kts | 252° |
| 2026-04-15 08:48 | 51.14107 | -0.24522 | 2257 ft | 166 kts | 252° |
| 2026-04-15 08:49 | 51.13836 | -0.26435 | 2604 ft | 189 kts | 253° |
| 2026-04-15 08:49 | 51.13532 | -0.28606 | 2998 ft | 210 kts | 253° |
| 2026-04-15 08:49 | 51.13342 | -0.30969 | 3707 ft | 223 kts | 268° |
| 2026-04-15 08:49 | 51.13728 | -0.33400 | 3956 ft | 232 kts | 292° |
| 2026-04-15 08:50 | 51.14763 | -0.35403 | 4007 ft | 240 kts | 318° |
| 2026-04-15 08:50 | 51.16277 | -0.36562 | 4014 ft | 248 kts | 345° |
| 2026-04-15 08:50 | 51.18012 | -0.36568 | 4012 ft | 252 kts | 15° |
| 2026-04-15 08:50 | 51.19576 | -0.35369 | 4011 ft | 250 kts | 40° |
| 2026-04-15 08:51 | 51.20634 | -0.33240 | 4001 ft | 248 kts | 70° |
| 2026-04-15 08:51 | 51.21008 | -0.30623 | 4011 ft | 241 kts | 94° |
| 2026-04-15 08:51 | 51.20750 | -0.27996 | 4484 ft | 240 kts | 107° |
| 2026-04-15 08:51 | 51.20433 | -0.25381 | 5372 ft | 241 kts | 105° |
| 2026-04-15 08:52 | 51.20153 | -0.22721 | 6207 ft | 246 kts | 99° |
| 2026-04-15 08:52 | 51.20327 | -0.19947 | 6912 ft | 261 kts | 83° |
| 2026-04-15 08:52 | 51.20711 | -0.16980 | 7277 ft | 284 kts | 82° |
| 2026-04-15 08:52 | 51.21134 | -0.13837 | 7937 ft | 294 kts | 82° |
| 2026-04-15 08:53 | 51.21576 | -0.10615 | 8736 ft | 299 kts | 82° |
| 2026-04-15 08:53 | 51.22021 | -0.07351 | 9564 ft | 304 kts | 82° |
| 2026-04-15 08:53 | 51.22595 | -0.04097 | 10267 ft | 318 kts | 69° |
| 2026-04-15 08:53 | 51.23869 | -0.00977 | 10500 ft | 346 kts | 53° |
| 2026-04-15 08:54 | 51.25424 | 0.02003 | 10822 ft | 359 kts | 51° |
| 2026-04-15 08:54 | 51.27048 | 0.05084 | 11494 ft | 365 kts | 51° |
| 2026-04-15 08:54 | 51.28684 | 0.08209 | 12218 ft | 368 kts | 51° |
| 2026-04-15 08:54 | 51.30325 | 0.11377 | 12960 ft | 372 kts | 51° |
| 2026-04-15 08:55 | 51.31977 | 0.14597 | 13676 ft | 375 kts | 51° |
| 2026-04-15 08:55 | 51.33632 | 0.17845 | 14484 ft | 379 kts | 51° |
| 2026-04-15 08:55 | 51.35308 | 0.21119 | 15101 ft | 383 kts | 51° |
| 2026-04-15 08:55 | 51.37011 | 0.24420 | 15707 ft | 387 kts | 51° |
| 2026-04-15 08:56 | 51.38736 | 0.27751 | 16301 ft | 391 kts | 51° |
| 2026-04-15 08:56 | 51.40509 | 0.31076 | 16906 ft | 395 kts | 46° |
| 2026-04-15 08:56 | 51.42689 | 0.33805 | 17486 ft | 400 kts | 32° |
| 2026-04-15 08:56 | 51.45062 | 0.36180 | 18073 ft | 404 kts | 31° |
| 2026-04-15 08:57 | 51.47466 | 0.38538 | 18612 ft | 408 kts | 31° |
| 2026-04-15 08:57 | 51.49899 | 0.40926 | 19117 ft | 412 kts | 31° |
| 2026-04-15 08:57 | 51.52349 | 0.43341 | 19655 ft | 415 kts | 31° |
| 2026-04-15 08:57 | 51.54814 | 0.45779 | 20154 ft | 418 kts | 31° |
| 2026-04-15 08:58 | 51.57300 | 0.48246 | 20670 ft | 421 kts | 31° |
| 2026-04-15 08:58 | 51.62290 | 0.53264 | 21741 ft | 424 kts | 31° |
| 2026-04-15 08:58 | 51.64770 | 0.55775 | 22222 ft | 427 kts | 31° |
| 2026-04-15 08:59 | 51.67301 | 0.58343 | 22701 ft | 430 kts | 31° |
| 2026-04-15 08:59 | 51.69848 | 0.60935 | 23184 ft | 433 kts | 31° |
| 2026-04-15 08:59 | 51.72406 | 0.63544 | 23644 ft | 436 kts | 31° |
| 2026-04-15 08:59 | 51.74981 | 0.66175 | 24025 ft | 439 kts | 31° |
| 2026-04-15 09:00 | 51.77567 | 0.68818 | 24393 ft | 443 kts | 31° |
| 2026-04-15 09:00 | 51.80183 | 0.71494 | 24753 ft | 446 kts | 31° |
| 2026-04-15 09:00 | 51.82810 | 0.74179 | 25147 ft | 448 kts | 31° |
| 2026-04-15 09:00 | 51.85453 | 0.76879 | 25522 ft | 451 kts | 31° |
| 2026-04-15 09:01 | 51.88111 | 0.79596 | 25888 ft | 453 kts | 31° |
| 2026-04-15 09:01 | 51.90785 | 0.82330 | 26239 ft | 456 kts | 31° |
| 2026-04-15 09:01 | 51.93462 | 0.85067 | 26587 ft | 459 kts | 31° |
| 2026-04-15 09:01 | 51.96160 | 0.87828 | 26928 ft | 461 kts | 31° |
| 2026-04-15 09:02 | 51.98800 | 0.90828 | 27256 ft | 464 kts | 42° |
| 2026-04-15 09:02 | 52.01055 | 0.94589 | 27564 ft | 467 kts | 48° |
| 2026-04-15 09:02 | 52.03259 | 0.98482 | 27914 ft | 469 kts | 48° |
| 2026-04-15 09:02 | 52.05470 | 1.02415 | 28330 ft | 470 kts | 48° |
| 2026-04-15 09:03 | 52.07677 | 1.06358 | 28665 ft | 473 kts | 48° |
| 2026-04-15 09:03 | 52.09911 | 1.10319 | 29005 ft | 475 kts | 47° |
| 2026-04-15 09:03 | 52.12199 | 1.14244 | 29327 ft | 478 kts | 46° |
| 2026-04-15 09:03 | 52.14526 | 1.18134 | 29640 ft | 481 kts | 45° |
| 2026-04-15 09:04 | 52.16855 | 1.21977 | 29945 ft | 483 kts | 45° |
| 2026-04-15 09:04 | 52.19224 | 1.25888 | 30227 ft | 486 kts | 45° |
| 2026-04-15 09:04 | 52.21593 | 1.29836 | 30476 ft | 488 kts | 46° |
| 2026-04-15 09:04 | 52.23962 | 1.33824 | 30726 ft | 490 kts | 46° |
| 2026-04-15 09:05 | 52.26337 | 1.37851 | 30977 ft | 492 kts | 46° |
| 2026-04-15 09:05 | 52.28711 | 1.41894 | 31232 ft | 494 kts | 46° |
| 2026-04-15 09:05 | 52.31091 | 1.45959 | 31493 ft | 496 kts | 46° |
| 2026-04-15 09:05 | 52.33473 | 1.50025 | 31828 ft | 494 kts | 46° |
| 2026-04-15 09:06 | 52.35849 | 1.54076 | 32281 ft | 491 kts | 45° |
| 2026-04-15 09:06 | 52.38215 | 1.58088 | 32667 ft | 489 kts | 45° |
| 2026-04-15 09:06 | 52.40580 | 1.62089 | 33021 ft | 488 kts | 45° |
| 2026-04-15 09:06 | 52.42941 | 1.66088 | 33359 ft | 488 kts | 45° |
| 2026-04-15 09:07 | 52.45298 | 1.70089 | 33689 ft | 488 kts | 45° |
| 2026-04-15 09:07 | 52.47652 | 1.74093 | 34018 ft | 487 kts | 45° |
| 2026-04-15 09:07 | 52.49970 | 1.78044 | 34305 ft | 487 kts | 45° |
| 2026-04-15 09:07 | 52.52333 | 1.82080 | 34624 ft | 486 kts | 45° |
| 2026-04-15 09:08 | 52.54668 | 1.86079 | 34894 ft | 486 kts | 45° |
| 2026-04-15 09:08 | 52.57005 | 1.90090 | 35152 ft | 486 kts | 45° |
| 2026-04-15 09:08 | 52.59343 | 1.94096 | 35405 ft | 485 kts | 45° |
| 2026-04-15 09:08 | 52.61691 | 1.98102 | 35646 ft | 485 kts | 45° |
| 2026-04-15 09:09 | 52.64034 | 2.02093 | 35904 ft | 484 kts | 44° |
| 2026-04-15 09:09 | 52.66366 | 2.06069 | 36198 ft | 482 kts | 44° |
| 2026-04-15 09:09 | 52.68697 | 2.10054 | 36458 ft | 481 kts | 44° |
| 2026-04-15 09:09 | 52.71017 | 2.14033 | 36696 ft | 481 kts | 44° |
| 2026-04-15 09:10 | 52.73333 | 2.18013 | 36903 ft | 481 kts | 44° |
| 2026-04-15 09:10 | 52.75648 | 2.21997 | 37092 ft | 481 kts | 44° |
| 2026-04-15 09:10 | 52.80263 | 2.29963 | 37113 ft | 479 kts | 44° |
| 2026-04-15 09:11 | 52.84861 | 2.37932 | 37110 ft | 478 kts | 44° |
| 2026-04-15 09:11 | 52.89442 | 2.45902 | 37122 ft | 478 kts | 44° |
| 2026-04-15 09:12 | 52.94032 | 2.53915 | 37103 ft | 478 kts | 44° |
| 2026-04-15 09:12 | 52.98769 | 2.61412 | 37140 ft | 470 kts | 32° |
| 2026-04-15 09:13 | 53.04397 | 2.66724 | 37136 ft | 464 kts | 22° |
| 2026-04-15 09:13 | 53.10176 | 2.71513 | 37136 ft | 464 kts | 22° |
| 2026-04-15 09:14 | 53.15954 | 2.76317 | 37126 ft | 464 kts | 22° |
| 2026-04-15 09:14 | 53.21739 | 2.81132 | 37123 ft | 464 kts | 22° |
| 2026-04-15 09:15 | 53.27520 | 2.85982 | 37129 ft | 465 kts | 22° |
| 2026-04-15 09:15 | 53.33285 | 2.90714 | 37117 ft | 464 kts | 20° |
| 2026-04-15 09:16 | 53.39139 | 2.95239 | 37114 ft | 463 kts | 20° |
| 2026-04-15 09:16 | 53.44998 | 2.99744 | 37105 ft | 463 kts | 20° |
| 2026-04-15 09:17 | 53.50841 | 3.04324 | 37113 ft | 463 kts | 20° |
| 2026-04-15 09:17 | 53.56676 | 3.08950 | 37109 ft | 464 kts | 21° |
| 2026-04-15 09:18 | 53.62497 | 3.13584 | 37119 ft | 462 kts | 20° |
| 2026-04-15 09:18 | 53.68311 | 3.18208 | 37133 ft | 460 kts | 20° |
| 2026-04-15 09:19 | 53.73116 | 3.22039 | 37158 ft | 460 kts | 20° |
| 2026-04-15 09:19 | 53.78897 | 3.26669 | 37147 ft | 459 kts | 20° |
| 2026-04-15 09:20 | 53.84663 | 3.31301 | 37136 ft | 459 kts | 20° |
| 2026-04-15 09:20 | 53.90432 | 3.35946 | 37128 ft | 458 kts | 20° |
| 2026-04-15 09:21 | 53.96193 | 3.40594 | 37140 ft | 458 kts | 20° |
| 2026-04-15 09:21 | 54.01955 | 3.45254 | 37129 ft | 459 kts | 20° |
| 2026-04-15 09:22 | 54.07719 | 3.49936 | 37126 ft | 459 kts | 20° |
| 2026-04-15 09:22 | 54.13480 | 3.54624 | 37121 ft | 459 kts | 20° |
| 2026-04-15 09:23 | 54.19255 | 3.59340 | 37128 ft | 460 kts | 20° |
| 2026-04-15 09:23 | 54.25021 | 3.64081 | 37146 ft | 460 kts | 20° |
| 2026-04-15 09:24 | 54.30782 | 3.68820 | 37137 ft | 460 kts | 20° |
| 2026-04-15 09:24 | 54.36556 | 3.73584 | 37137 ft | 460 kts | 20° |
| 2026-04-15 09:25 | 54.42278 | 3.78321 | 37151 ft | 458 kts | 20° |
| 2026-04-15 09:25 | 54.48011 | 3.83095 | 37168 ft | 457 kts | 20° |
| 2026-04-15 09:26 | 54.53731 | 3.87854 | 37172 ft | 456 kts | 20° |
| 2026-04-15 09:26 | 54.59436 | 3.92615 | 37162 ft | 455 kts | 20° |
| 2026-04-15 09:27 | 54.65131 | 3.97381 | 37159 ft | 455 kts | 20° |
| 2026-04-15 09:27 | 54.70825 | 4.02174 | 37169 ft | 454 kts | 20° |
| 2026-04-15 09:28 | 54.76506 | 4.06947 | 37161 ft | 454 kts | 20° |
| 2026-04-15 09:28 | 54.82187 | 4.11745 | 37152 ft | 454 kts | 20° |
| 2026-04-15 09:29 | 54.87921 | 4.16241 | 37158 ft | 448 kts | 12° |
| 2026-04-15 09:29 | 54.93817 | 4.19727 | 37167 ft | 447 kts | 12° |
| 2026-04-15 09:30 | 54.99715 | 4.23204 | 37156 ft | 447 kts | 12° |
| 2026-04-15 09:30 | 55.05611 | 4.26684 | 37151 ft | 447 kts | 12° |
| 2026-04-15 09:31 | 55.11501 | 4.30196 | 37144 ft | 447 kts | 13° |
| 2026-04-15 09:31 | 55.17391 | 4.33713 | 37141 ft | 447 kts | 12° |
| 2026-04-15 09:32 | 55.23287 | 4.37239 | 37156 ft | 447 kts | 12° |
| 2026-04-15 09:32 | 55.29175 | 4.40779 | 37152 ft | 447 kts | 13° |
| 2026-04-15 09:33 | 55.35053 | 4.44323 | 37177 ft | 446 kts | 12° |
| 2026-04-15 09:33 | 55.40910 | 4.47865 | 37184 ft | 443 kts | 12° |
| 2026-04-15 09:34 | 55.46744 | 4.51398 | 37193 ft | 442 kts | 12° |
| 2026-04-15 09:34 | 55.52517 | 4.54914 | 37186 ft | 441 kts | 12° |
| 2026-04-15 09:35 | 55.58307 | 4.58447 | 37179 ft | 440 kts | 12° |
| 2026-04-15 09:35 | 55.64085 | 4.61980 | 37176 ft | 439 kts | 12° |
| 2026-04-15 09:36 | 55.69861 | 4.65526 | 37191 ft | 438 kts | 13° |
| 2026-04-15 09:36 | 55.75615 | 4.69064 | 37189 ft | 438 kts | 12° |
| 2026-04-15 09:37 | 55.81375 | 4.72615 | 37176 ft | 437 kts | 13° |
| 2026-04-15 09:37 | 55.87117 | 4.76173 | 37192 ft | 437 kts | 12° |
| 2026-04-15 09:38 | 55.92870 | 4.79743 | 37185 ft | 437 kts | 13° |
| 2026-04-15 09:38 | 55.98613 | 4.83328 | 37185 ft | 437 kts | 13° |
| 2026-04-15 09:39 | 56.04354 | 4.86932 | 37184 ft | 437 kts | 13° |
| 2026-04-15 09:39 | 56.10086 | 4.90538 | 37182 ft | 437 kts | 13° |
| 2026-04-15 09:40 | 56.15839 | 4.94152 | 37186 ft | 437 kts | 13° |
| 2026-04-15 09:40 | 56.21571 | 4.97759 | 37202 ft | 437 kts | 13° |
| 2026-04-15 09:41 | 56.27263 | 5.01386 | 37193 ft | 437 kts | 13° |
| 2026-04-15 09:41 | 56.32973 | 5.05184 | 37196 ft | 438 kts | 14° |
| 2026-04-15 09:42 | 56.38683 | 5.09034 | 37201 ft | 437 kts | 14° |
| 2026-04-15 09:42 | 56.44387 | 5.12864 | 37203 ft | 437 kts | 14° |
| 2026-04-15 09:43 | 56.50099 | 5.16699 | 37218 ft | 437 kts | 14° |
| 2026-04-15 09:43 | 56.55803 | 5.20539 | 37211 ft | 437 kts | 14° |
| 2026-04-15 09:44 | 56.61513 | 5.24395 | 37208 ft | 437 kts | 14° |
| 2026-04-15 09:44 | 56.67185 | 5.28242 | 37210 ft | 438 kts | 14° |
| 2026-04-15 09:45 | 56.72890 | 5.32122 | 37227 ft | 438 kts | 14° |
| 2026-04-15 09:45 | 56.78589 | 5.36018 | 37228 ft | 437 kts | 14° |
| 2026-04-15 09:46 | 56.84291 | 5.39920 | 37235 ft | 437 kts | 14° |
| 2026-04-15 09:46 | 56.89979 | 5.43821 | 37232 ft | 437 kts | 14° |
| 2026-04-15 09:47 | 56.95672 | 5.47737 | 37235 ft | 437 kts | 14° |
| 2026-04-15 09:47 | 57.01372 | 5.51625 | 37252 ft | 435 kts | 13° |
| 2026-04-15 09:48 | 57.07151 | 5.54888 | 37249 ft | 432 kts | 9° |
| 2026-04-15 09:48 | 57.12948 | 5.57794 | 37245 ft | 432 kts | 9° |
| 2026-04-15 09:49 | 57.18693 | 5.60761 | 37245 ft | 432 kts | 10° |
| 2026-04-15 09:49 | 57.24457 | 5.63903 | 37240 ft | 432 kts | 11° |
| 2026-04-15 09:50 | 57.30221 | 5.67083 | 37253 ft | 431 kts | 11° |
| 2026-04-15 09:50 | 57.35975 | 5.70233 | 37248 ft | 431 kts | 10° |
| 2026-04-15 09:51 | 57.41730 | 5.73374 | 37244 ft | 431 kts | 11° |
| 2026-04-15 09:51 | 57.47481 | 5.76533 | 37246 ft | 431 kts | 11° |
| 2026-04-15 09:52 | 57.53231 | 5.79690 | 37263 ft | 431 kts | 11° |
| 2026-04-15 09:52 | 57.58975 | 5.82876 | 37264 ft | 430 kts | 11° |
| 2026-04-15 09:53 | 57.64713 | 5.86071 | 37251 ft | 430 kts | 11° |
| 2026-04-15 09:53 | 57.70455 | 5.89272 | 37249 ft | 430 kts | 11° |
| 2026-04-15 09:54 | 57.76186 | 5.92477 | 37243 ft | 430 kts | 11° |
| 2026-04-15 09:54 | 57.81920 | 5.95683 | 37266 ft | 429 kts | 11° |
| 2026-04-15 09:55 | 57.87611 | 5.98887 | 37244 ft | 429 kts | 11° |
| 2026-04-15 09:55 | 57.93332 | 6.02130 | 37246 ft | 429 kts | 11° |
| 2026-04-15 09:56 | 57.99062 | 6.05367 | 37242 ft | 429 kts | 11° |
| 2026-04-15 09:57 | 58.07648 | 6.10249 | 37264 ft | 430 kts | 11° |
| 2026-04-15 09:57 | 58.13376 | 6.13522 | 37254 ft | 430 kts | 11° |
| 2026-04-15 09:58 | 58.19108 | 6.16807 | 37274 ft | 430 kts | 11° |
| 2026-04-15 09:58 | 58.24839 | 6.20115 | 37262 ft | 430 kts | 11° |
| 2026-04-15 09:59 | 58.30570 | 6.23421 | 37259 ft | 430 kts | 11° |
| 2026-04-15 09:59 | 58.36304 | 6.26723 | 37267 ft | 431 kts | 11° |
| 2026-04-15 10:00 | 58.42044 | 6.30054 | 37258 ft | 431 kts | 11° |
| 2026-04-15 10:00 | 58.47785 | 6.33398 | 37246 ft | 431 kts | 11° |
| 2026-04-15 10:01 | 58.52559 | 6.36190 | 37244 ft | 431 kts | 11° |
| 2026-04-15 10:01 | 58.58309 | 6.39560 | 37248 ft | 432 kts | 11° |
| 2026-04-15 10:02 | 58.64047 | 6.42939 | 37244 ft | 432 kts | 11° |
| 2026-04-15 10:02 | 58.69793 | 6.46344 | 37252 ft | 432 kts | 11° |
| 2026-04-15 10:03 | 58.75540 | 6.49746 | 37245 ft | 432 kts | 11° |
| 2026-04-15 10:03 | 58.81294 | 6.53153 | 37248 ft | 432 kts | 11° |
| 2026-04-15 10:04 | 58.87041 | 6.56589 | 37260 ft | 432 kts | 12° |
| 2026-04-15 10:04 | 58.92782 | 6.60030 | 37258 ft | 432 kts | 12° |
| 2026-04-15 10:05 | 58.98523 | 6.63484 | 37272 ft | 432 kts | 12° |
| 2026-04-15 10:05 | 59.04266 | 6.66947 | 37278 ft | 432 kts | 12° |
| 2026-04-15 10:06 | 59.10009 | 6.70418 | 37285 ft | 432 kts | 12° |
| 2026-04-15 10:06 | 59.15717 | 6.73882 | 37289 ft | 432 kts | 12° |
| 2026-04-15 10:07 | 59.21454 | 6.77380 | 37300 ft | 431 kts | 13° |
| 2026-04-15 10:07 | 59.27170 | 6.80877 | 37289 ft | 430 kts | 13° |
| 2026-04-15 10:08 | 59.32875 | 6.84388 | 37282 ft | 429 kts | 13° |
| 2026-04-15 10:08 | 59.38566 | 6.88015 | 37282 ft | 430 kts | 13° |
| 2026-04-15 10:09 | 59.44233 | 6.91755 | 37299 ft | 429 kts | 14° |
| 2026-04-15 10:09 | 59.49898 | 6.95503 | 37296 ft | 428 kts | 14° |
| 2026-04-15 10:10 | 59.55548 | 6.99214 | 37300 ft | 428 kts | 14° |
| 2026-04-15 10:10 | 59.61191 | 7.02928 | 37297 ft | 427 kts | 14° |
| 2026-04-15 10:11 | 59.66831 | 7.06653 | 37305 ft | 427 kts | 14° |
| 2026-04-15 10:11 | 59.72465 | 7.10399 | 37335 ft | 427 kts | 15° |
| 2026-04-15 10:12 | 59.78086 | 7.14140 | 37334 ft | 426 kts | 15° |
| 2026-04-15 10:12 | 59.83670 | 7.17884 | 37329 ft | 426 kts | 15° |
| 2026-04-15 10:13 | 59.89282 | 7.21658 | 37335 ft | 425 kts | 15° |
| 2026-04-15 10:13 | 59.94890 | 7.25432 | 37333 ft | 425 kts | 15° |
| 2026-04-15 10:14 | 60.00496 | 7.29214 | 37352 ft | 425 kts | 15° |
| 2026-04-15 10:14 | 60.06091 | 7.33021 | 37344 ft | 424 kts | 15° |
| 2026-04-15 10:15 | 60.11685 | 7.36849 | 37339 ft | 424 kts | 15° |
| 2026-04-15 10:15 | 60.17261 | 7.40672 | 37337 ft | 424 kts | 15° |
| 2026-04-15 10:16 | 60.22821 | 7.44475 | 37333 ft | 424 kts | 15° |
| 2026-04-15 10:16 | 60.28406 | 7.48308 | 37343 ft | 424 kts | 16° |
| 2026-04-15 10:17 | 60.33990 | 7.52173 | 37338 ft | 424 kts | 16° |
| 2026-04-15 10:17 | 60.39574 | 7.56050 | 37351 ft | 424 kts | 16° |
| 2026-04-15 10:18 | 60.45157 | 7.59944 | 37346 ft | 424 kts | 16° |
| 2026-04-15 10:18 | 60.50740 | 7.63842 | 37346 ft | 424 kts | 16° |
| 2026-04-15 10:19 | 60.56323 | 7.67746 | 37358 ft | 424 kts | 16° |
| 2026-04-15 10:19 | 60.61913 | 7.71674 | 37352 ft | 425 kts | 16° |
| 2026-04-15 10:20 | 60.67489 | 7.75628 | 37346 ft | 425 kts | 16° |
| 2026-04-15 10:20 | 60.73070 | 7.79597 | 37344 ft | 425 kts | 16° |
| 2026-04-15 10:21 | 60.78653 | 7.83564 | 37341 ft | 425 kts | 16° |
| 2026-04-15 10:21 | 60.84236 | 7.87536 | 37349 ft | 425 kts | 16° |
| 2026-04-15 10:22 | 60.89819 | 7.91532 | 37338 ft | 425 kts | 16° |
| 2026-04-15 10:22 | 60.95402 | 7.95558 | 37331 ft | 425 kts | 16° |
| 2026-04-15 10:23 | 61.00947 | 7.99568 | 37331 ft | 425 kts | 17° |
| 2026-04-15 10:23 | 61.06531 | 8.03621 | 37329 ft | 425 kts | 17° |
| 2026-04-15 10:24 | 61.12115 | 8.07683 | 37362 ft | 425 kts | 17° |
| 2026-04-15 10:24 | 61.17702 | 8.11756 | 37353 ft | 426 kts | 17° |
| 2026-04-15 10:25 | 61.23304 | 8.15858 | 37350 ft | 426 kts | 17° |
| 2026-04-15 10:25 | 61.28893 | 8.19983 | 37348 ft | 426 kts | 17° |
| 2026-04-15 10:26 | 61.34487 | 8.24118 | 37346 ft | 426 kts | 17° |
| 2026-04-15 10:26 | 61.40070 | 8.28261 | 37344 ft | 426 kts | 17° |
| 2026-04-15 10:27 | 61.45631 | 8.32407 | 37341 ft | 426 kts | 17° |
| 2026-04-15 10:27 | 61.51220 | 8.36576 | 37341 ft | 426 kts | 17° |
| 2026-04-15 10:28 | 61.56812 | 8.40771 | 37340 ft | 426 kts | 17° |